Time;durP1;ratioP1;P1;durP2;ratioP2;P2;SDS_P1;SDS_P2;PMS_P1;PMS_P2;Temp;Humidity;BMP_temperature;BMP_pressure;BME280_temperature;BME280_humidity;BME280_pressure;Samples;Min_cycle;Max_cycle;Signal;HPM_P1;HPM_P2
2022/01/20 00:00:13;;;;;;;9.93;1.27;;;4.20;99.90;;;;;;4931178;28;20058;-74
2022/01/20 00:02:39;;;;;;;13.93;2.75;;;4.20;99.90;;;;;;4941829;28;20067;-74
2022/01/20 00:05:24;;;;;;;12.32;1.25;;;4.20;99.90;;;;;;4936727;28;20186;-75
2022/01/20 00:27:07;;;;;;;9.20;1.77;;;4.40;99.90;;;;;;4933191;28;20059;-74
2022/01/20 00:29:53;;;;;;;11.52;1.25;;;4.40;99.90;;;;;;4944819;28;20527;-75
2022/01/20 00:32:22;;;;;;;8.88;1.30;;;4.40;99.90;;;;;;4930695;28;20055;-74
2022/01/20 00:35:05;;;;;;;14.23;3.10;;;4.40;99.90;;;;;;4939176;28;20047;-74
2022/01/20 00:37:31;;;;;;;12.32;1.42;;;4.30;99.90;;;;;;4948738;28;20471;-75
2022/01/20 00:39:58;;;;;;;11.48;1.70;;;4.30;99.90;;;;;;4932556;28;20063;-74
2022/01/20 00:42:24;;;;;;;11.25;1.65;;;4.30;99.90;;;;;;4939247;28;20052;-74
2022/01/20 00:44:50;;;;;;;7.32;1.23;;;4.30;99.90;;;;;;4929648;28;20051;-74
2022/01/20 00:47:17;;;;;;;16.88;1.83;;;4.30;99.90;;;;;;4935454;28;20085;-74
2022/01/20 00:49:44;;;;;;;10.65;1.33;;;4.30;99.90;;;;;;4933298;28;20067;-74
2022/01/20 00:52:10;;;;;;;9.77;1.33;;;4.30;99.90;;;;;;4931555;28;20387;-74
2022/01/20 00:54:36;;;;;;;15.38;1.58;;;4.20;99.90;;;;;;4947466;28;20047;-74
2022/01/20 00:57:02;;;;;;;18.80;1.73;;;4.20;99.90;;;;;;4942199;28;20074;-74
2022/01/20 00:59:29;;;;;;;9.52;1.75;;;4.20;99.90;;;;;;4937302;28;20078;-74
2022/01/20 01:01:57;;;;;;;13.93;1.85;;;4.20;99.90;;;;;;4940631;28;20050;-74
2022/01/20 01:04:25;;;;;;;12.60;1.33;;;4.30;99.90;;;;;;4943965;28;20047;-74
2022/01/20 01:09:20;;;;;;;14.60;1.55;;;4.20;99.90;;;;;;4937841;28;20060;-74
2022/01/20 01:11:47;;;;;;;14.32;1.67;;;4.30;99.90;;;;;;4937260;28;20403;-74
2022/01/20 01:14:15;;;;;;;12.40;1.75;;;4.30;99.90;;;;;;4939824;28;20079;-74
2022/01/20 01:22:13;;;;;;;13.90;2.42;;;4.70;99.90;;;;;;4947603;28;20047;-74
2022/01/20 01:24:42;;;;;;;12.18;1.88;;;4.30;99.90;;;;;;4936679;28;20061;-74
2022/01/20 01:27:09;;;;;;;15.70;1.30;;;4.30;99.90;;;;;;4936080;28;20541;-74
2022/01/20 01:30:01;;;;;;;8.57;1.02;;;4.30;99.90;;;;;;4936139;28;20059;-74
2022/01/20 01:32:59;;;;;;;11.82;1.10;;;4.30;99.90;;;;;;4939454;28;20081;-74
2022/01/20 01:35:21;;;;;;;14.20;1.20;;;4.50;99.90;;;;;;4943437;28;20054;-74
2022/01/20 01:40:25;;;;;;;8.85;0.88;;;4.30;99.90;;;;;;4937783;28;20410;-74
2022/01/20 01:42:52;;;;;;;8.15;1.08;;;4.30;99.90;;;;;;4943956;28;20047;-74
2022/01/20 01:45:28;;;;;;;6.88;0.80;;;4.20;99.90;;;;;;4943859;28;20487;-74
2022/01/20 01:47:54;;;;;;;16.35;1.00;;;4.20;99.90;;;;;;4935706;28;20048;-74
2022/01/20 01:50:20;;;;;;;6.85;0.95;;;4.20;99.90;;;;;;4943395;28;20052;-74
2022/01/20 01:52:46;;;;;;;11.10;0.85;;;4.10;99.90;;;;;;4940328;28;20051;-74
2022/01/20 01:55:12;;;;;;;11.32;0.85;;;4.10;99.90;;;;;;4938044;28;20068;-74
2022/01/20 01:57:38;;;;;;;9.68;1.20;;;4.10;99.90;;;;;;4937114;28;20048;-74
2022/01/20 02:00:08;;;;;;;9.50;1.23;;;4.10;99.90;;;;;;4945216;28;20498;-74
2022/01/20 02:02:35;;;;;;;8.82;1.23;;;4.10;99.90;;;;;;4939039;28;20047;-74
2022/01/20 02:05:03;;;;;;;9.85;1.15;;;4.10;99.90;;;;;;4934294;28;20063;-74
2022/01/20 02:20:51;;;;;;;14.48;2.55;;;4.20;99.90;;;;;;4938415;28;20054;-74
2022/01/20 02:23:17;;;;;;;14.50;0.88;;;4.20;99.90;;;;;;4934899;28;20406;-74
2022/01/20 02:25:42;;;;;;;14.40;1.50;;;4.20;99.90;;;;;;4934659;28;20043;-74
2022/01/20 02:28:10;;;;;;;10.02;1.70;;;4.20;99.90;;;;;;4933533;28;20058;-74
2022/01/20 02:30:38;;;;;;;16.60;1.98;;;4.20;99.90;;;;;;4928538;28;21790;-74
2022/01/20 02:33:17;;;;;;;15.32;2.70;;;4.20;99.90;;;;;;4942944;28;20097;-74
2022/01/20 02:35:56;;;;;;;7.82;1.50;;;4.30;99.90;;;;;;4933715;28;20546;-74
2022/01/20 02:38:40;;;;;;;12.80;2.15;;;4.20;99.90;;;;;;4935568;28;20098;-74
2022/01/20 02:46:37;;;;;;;13.85;1.55;;;4.10;99.90;;;;;;4939900;28;20102;-74
2022/01/20 02:49:03;;;;;;;16.00;1.52;;;4.10;99.90;;;;;;4944451;28;20063;-74
2022/01/20 02:51:28;;;;;;;14.77;1.42;;;4.10;99.90;;;;;;4937617;28;20062;-74
2022/01/20 02:53:54;;;;;;;17.00;1.95;;;4.20;99.90;;;;;;4934522;28;20043;-74
2022/01/20 02:56:19;;;;;;;11.70;1.67;;;4.00;99.90;;;;;;4933599;28;20086;-74
2022/01/20 02:58:46;;;;;;;14.60;1.90;;;4.00;99.90;;;;;;4933051;28;20102;-74
2022/01/20 03:01:11;;;;;;;12.05;1.83;;;4.00;99.90;;;;;;4934403;28;20097;-74
2022/01/20 03:03:37;;;;;;;16.67;1.88;;;4.00;99.90;;;;;;4938143;28;20051;-74
2022/01/20 03:06:04;;;;;;;13.48;1.75;;;4.00;99.90;;;;;;4931812;28;20078;-74
2022/01/20 03:08:30;;;;;;;11.23;1.73;;;4.00;99.90;;;;;;4940373;28;20071;-74
2022/01/20 03:10:56;;;;;;;14.32;1.80;;;4.00;99.90;;;;;;4936162;28;20474;-74
2022/01/20 03:13:21;;;;;;;20.85;3.03;;;4.00;99.90;;;;;;4933650;28;20059;-74
2022/01/20 03:15:48;;;;;;;20.88;3.47;;;4.00;99.90;;;;;;4938837;28;20377;-74
2022/01/20 03:18:14;;;;;;;14.63;2.63;;;4.00;99.90;;;;;;4932549;28;20035;-74
2022/01/20 03:20:39;;;;;;;16.73;2.33;;;4.10;99.90;;;;;;4931326;28;20084;-74
2022/01/20 03:23:05;;;;;;;11.20;2.00;;;4.20;99.90;;;;;;4934357;28;20174;-74
2022/01/20 03:25:31;;;;;;;13.88;2.33;;;4.20;99.90;;;;;;4933784;28;20070;-74
2022/01/20 03:27:57;;;;;;;15.45;2.80;;;4.20;99.90;;;;;;4934345;28;20039;-74
2022/01/20 03:30:23;;;;;;;12.02;1.98;;;4.20;99.90;;;;;;4931119;28;20201;-74
2022/01/20 03:32:49;;;;;;;14.32;2.20;;;4.20;99.90;;;;;;4940398;28;20118;-74
2022/01/20 03:35:16;;;;;;;20.17;3.47;;;4.10;99.90;;;;;;4942140;28;20047;-74
2022/01/20 03:37:42;;;;;;;19.95;2.90;;;4.10;99.90;;;;;;4935127;28;20066;-74
2022/01/20 03:40:08;;;;;;;12.57;2.25;;;4.10;99.90;;;;;;4937324;28;20063;-74
2022/01/20 03:42:34;;;;;;;18.38;2.42;;;3.10;99.90;;;;;;4940031;28;20097;-74
2022/01/20 03:45:01;;;;;;;20.65;3.03;;;4.10;99.90;;;;;;4941956;28;20047;-74
2022/01/20 03:47:26;;;;;;;22.92;4.28;;;4.10;99.90;;;;;;4942423;28;20601;-74
2022/01/20 03:52:26;;;;;;;17.27;2.85;;;4.10;99.90;;;;;;4943901;28;20060;-74
2022/01/20 03:54:52;;;;;;;16.80;3.42;;;4.20;99.90;;;;;;4931442;28;20503;-74
2022/01/20 03:57:18;;;;;;;13.60;2.47;;;4.10;99.90;;;;;;4932751;28;20055;-74
2022/01/20 03:59:44;;;;;;;15.77;2.35;;;4.10;99.90;;;;;;4931744;28;20055;-74
2022/01/20 04:02:10;;;;;;;12.82;1.92;;;4.10;99.90;;;;;;4934115;28;20048;-74
2022/01/20 04:04:35;;;;;;;11.32;2.10;;;4.10;99.90;;;;;;4931900;28;20049;-74
2022/01/20 04:07:01;;;;;;;14.13;2.42;;;4.10;99.90;;;;;;4936298;28;20378;-74
2022/01/20 04:09:27;;;;;;;14.07;1.67;;;4.00;99.90;;;;;;4934837;28;20046;-74
2022/01/20 04:11:53;;;;;;;16.10;2.13;;;4.00;99.90;;;;;;4937446;28;20550;-74
2022/01/20 04:14:20;;;;;;;15.25;1.92;;;4.10;99.90;;;;;;4937408;28;20055;-74
2022/01/20 04:17:06;;;;;;;10.60;1.38;;;4.00;99.90;;;;;;4940679;28;20040;-74
2022/01/20 04:19:32;;;;;;;10.57;1.60;;;4.00;99.90;;;;;;4939395;28;20062;-74
2022/01/20 04:21:59;;;;;;;15.60;1.90;;;3.90;99.90;;;;;;4934170;28;20483;-74
2022/01/20 04:24:25;;;;;;;10.02;1.45;;;4.30;99.90;;;;;;4933853;28;20063;-74
2022/01/20 04:26:51;;;;;;;6.93;1.25;;;3.90;99.90;;;;;;4932333;28;20082;-74
2022/01/20 04:29:17;;;;;;;14.05;1.85;;;3.90;99.90;;;;;;4928877;28;20043;-74
2022/01/20 04:31:44;;;;;;;9.13;1.13;;;3.90;99.90;;;;;;4930839;28;20052;-74
2022/01/20 04:34:10;;;;;;;10.15;1.45;;;3.90;99.90;;;;;;4938346;28;20142;-74
2022/01/20 04:36:43;;;;;;;16.35;1.65;;;3.90;99.90;;;;;;4936066;28;20051;-74
2022/01/20 04:39:12;;;;;;;12.35;2.33;;;4.20;99.90;;;;;;4934830;28;20142;-74
2022/01/20 04:41:38;;;;;;;7.95;1.60;;;3.90;99.90;;;;;;4934159;28;20442;-74
2022/01/20 04:44:11;;;;;;;14.80;2.00;;;3.90;99.90;;;;;;4937903;28;20056;-74
2022/01/20 04:46:44;;;;;;;11.82;1.63;;;3.90;99.90;;;;;;4931290;28;20052;-74
2022/01/20 04:59:38;;;;;;;9.60;1.15;;;3.80;99.90;;;;;;4932163;28;20052;-74
2022/01/20 05:02:04;;;;;;;10.90;1.40;;;3.80;99.90;;;;;;4931257;28;20112;-74
2022/01/20 05:04:30;;;;;;;9.70;1.52;;;3.80;99.90;;;;;;4932608;28;20055;-74
2022/01/20 05:06:57;;;;;;;15.95;1.95;;;3.70;99.90;;;;;;4938528;28;20107;-74
2022/01/20 05:09:23;;;;;;;10.50;1.90;;;3.70;99.90;;;;;;4934318;28;20860;-73
2022/01/20 05:11:58;;;;;;;10.65;2.15;;;3.70;99.90;;;;;;4934424;29;20044;-74
2022/01/20 05:14:24;;;;;;;15.32;1.63;;;3.70;99.90;;;;;;4942934;28;20055;-74
2022/01/20 05:16:51;;;;;;;15.05;1.77;;;3.60;99.90;;;;;;4930640;28;20399;-74
2022/01/20 05:19:16;;;;;;;12.07;1.70;;;3.70;99.90;;;;;;4932929;28;20051;-74
2022/01/20 05:21:42;;;;;;;9.90;1.20;;;3.60;99.90;;;;;;4937837;28;20032;-74
2022/01/20 05:24:08;;;;;;;8.45;1.60;;;3.70;99.90;;;;;;4934988;28;20078;-74
2022/01/20 05:26:33;;;;;;;11.70;1.30;;;3.60;99.90;;;;;;4938508;28;20044;-74
2022/01/20 05:28:59;;;;;;;11.38;1.08;;;3.60;99.90;;;;;;4932101;28;20407;-74
2022/01/20 05:31:24;;;;;;;4.43;0.70;;;3.60;99.90;;;;;;4931557;28;20466;-74
2022/01/20 05:33:50;;;;;;;8.10;0.70;;;3.50;99.90;;;;;;4933263;28;20052;-74
2022/01/20 05:36:15;;;;;;;3.42;0.70;;;3.50;99.90;;;;;;4936683;28;20102;-74
2022/01/20 05:38:41;;;;;;;5.70;0.90;;;3.40;99.90;;;;;;4937660;28;20055;-74
2022/01/20 05:41:07;;;;;;;6.70;1.00;;;3.40;99.90;;;;;;4934255;28;20062;-74
2022/01/20 05:43:33;;;;;;;8.55;0.77;;;3.40;99.90;;;;;;4941690;28;20044;-74
2022/01/20 05:45:58;;;;;;;10.55;1.60;;;3.30;99.90;;;;;;4935223;28;20205;-74
2022/01/20 05:48:35;;;;;;;4.40;0.70;;;3.30;99.90;;;;;;4941057;28;20406;-74
2022/01/20 05:51:02;;;;;;;7.78;0.90;;;3.20;99.90;;;;;;4933580;28;20060;-74
2022/01/20 05:53:28;;;;;;;6.38;0.93;;;3.20;99.90;;;;;;4933749;28;20047;-74
2022/01/20 05:55:54;;;;;;;6.68;1.13;;;3.20;99.90;;;;;;4933554;28;20060;-74
2022/01/20 05:58:20;;;;;;;11.93;1.15;;;3.20;99.90;;;;;;4936689;28;20048;-74
2022/01/20 06:00:46;;;;;;;9.65;1.30;;;3.10;99.90;;;;;;4935594;28;20090;-74
2022/01/20 06:05:56;;;;;;;;;;;3.10;99.90;;;;;;4942437;28;20062;-73
2022/01/20 06:08:22;;;;;;;14.15;1.83;;;3.10;99.90;;;;;;4934907;28;20365;-73
2022/01/20 06:10:48;;;;;;;7.40;1.63;;;3.10;99.90;;;;;;4936063;28;20055;-73
2022/01/20 06:13:13;;;;;;;13.88;2.20;;;3.20;99.90;;;;;;4937608;28;20047;-73
2022/01/20 06:15:40;;;;;;;14.10;1.52;;;3.10;99.90;;;;;;4943682;28;20047;-74
2022/01/20 06:18:07;;;;;;;11.35;1.98;;;3.20;99.90;;;;;;4946678;28;20039;-73
2022/01/20 06:20:33;;;;;;;10.10;1.63;;;3.20;99.90;;;;;;4937486;28;20517;-73
2022/01/20 06:22:59;;;;;;;13.25;1.77;;;3.20;99.90;;;;;;4942954;29;20067;-73
2022/01/20 06:25:25;;;;;;;11.73;3.05;;;3.40;99.90;;;;;;4936865;28;20050;-73
2022/01/20 06:27:53;;;;;;;17.90;3.47;;;3.30;99.90;;;;;;4932376;28;20052;-73
2022/01/20 06:30:19;;;;;;;8.95;1.35;;;3.30;99.90;;;;;;4932056;28;20052;-73
2022/01/20 06:32:45;;;;;;;18.40;2.42;;;3.30;99.90;;;;;;4933900;28;20075;-73
2022/01/20 06:35:11;;;;;;;15.15;2.47;;;3.30;99.90;;;;;;4933408;28;20113;-73
2022/01/20 06:37:36;;;;;;;11.57;1.35;;;3.30;99.90;;;;;;4935518;28;20104;-75
2022/01/20 06:40:04;;;;;;;12.15;1.98;;;3.30;99.90;;;;;;4942828;28;20048;-74
2022/01/20 06:42:30;;;;;;;14.07;1.60;;;3.30;99.90;;;;;;4934679;28;20051;-74
2022/01/20 06:44:56;;;;;;;12.70;2.13;;;3.40;99.90;;;;;;4939145;28;20055;-74
2022/01/20 06:47:22;;;;;;;6.28;1.70;;;3.40;99.90;;;;;;4943128;28;20054;-74
2022/01/20 06:49:48;;;;;;;16.30;2.45;;;3.40;99.90;;;;;;4933438;28;20074;-74
2022/01/20 06:52:13;;;;;;;13.88;1.63;;;3.30;99.90;;;;;;4934496;28;20051;-74
2022/01/20 06:54:39;;;;;;;12.60;2.00;;;3.20;99.90;;;;;;4951018;28;20119;-73
2022/01/20 06:57:04;;;;;;;14.73;1.83;;;3.10;99.90;;;;;;4936907;28;20052;-74
2022/01/20 06:59:30;;;;;;;14.80;2.25;;;3.00;99.90;;;;;;4936276;28;20090;-74
2022/01/20 07:01:56;;;;;;;8.90;1.20;;;3.00;99.90;;;;;;4931018;28;20392;-74
2022/01/20 07:04:22;;;;;;;11.77;1.52;;;2.90;99.90;;;;;;4974980;28;20058;-74
2022/01/20 07:06:48;;;;;;;8.02;1.55;;;2.90;99.90;;;;;;4946055;28;20455;-74
2022/01/20 07:09:14;;;;;;;10.88;2.08;;;2.80;99.90;;;;;;4939188;28;20052;-74
2022/01/20 07:11:40;;;;;;;12.63;1.80;;;2.80;99.90;;;;;;4937075;28;20085;-75
2022/01/20 07:14:06;;;;;;;13.30;1.98;;;2.80;99.90;;;;;;4932731;28;20506;-73
2022/01/20 07:16:32;;;;;;;9.45;1.60;;;2.80;99.90;;;;;;4943657;28;20066;-73
2022/01/20 07:18:58;;;;;;;9.48;1.90;;;2.80;99.90;;;;;;4943735;28;20032;-73
2022/01/20 07:21:24;;;;;;;13.43;1.55;;;2.80;99.90;;;;;;4936055;28;20051;-74
2022/01/20 07:23:50;;;;;;;7.82;1.20;;;2.80;99.90;;;;;;4933203;28;20040;-73
2022/01/20 07:26:16;;;;;;;11.18;1.35;;;2.80;99.90;;;;;;4942311;28;20462;-73
2022/01/20 07:28:42;;;;;;;12.10;1.50;;;2.80;99.90;;;;;;4943557;28;20067;-75
2022/01/20 07:31:08;;;;;;;8.98;1.65;;;2.80;99.90;;;;;;4944919;28;20039;-74
2022/01/20 07:33:34;;;;;;;12.30;1.63;;;2.90;99.90;;;;;;4944508;28;20047;-74
2022/01/20 07:36:00;;;;;;;14.68;1.63;;;3.00;99.90;;;;;;4932406;28;20062;-74
2022/01/20 07:38:26;;;;;;;10.77;1.38;;;3.20;99.90;;;;;;4931312;28;20035;-73
2022/01/20 07:40:51;;;;;;;9.52;1.58;;;3.00;99.90;;;;;;4938145;28;20063;-73
2022/01/20 07:43:18;;;;;;;9.95;1.50;;;3.00;99.90;;;;;;4922146;28;20080;-75
2022/01/20 07:45:43;;;;;;;12.90;1.42;;;2.90;99.90;;;;;;4934554;28;20059;-75
2022/01/20 07:48:09;;;;;;;8.13;1.08;;;2.90;99.90;;;;;;4937248;28;20054;-76
2022/01/20 07:50:35;;;;;;;13.10;1.67;;;2.90;99.90;;;;;;4936389;28;20059;-74
2022/01/20 07:53:01;;;;;;;11.05;2.15;;;2.90;99.90;;;;;;4931208;28;20055;-73
2022/01/20 07:55:27;;;;;;;16.10;1.25;;;2.90;99.90;;;;;;4935505;28;20078;-74
2022/01/20 07:57:52;;;;;;;7.75;1.67;;;2.90;99.90;;;;;;4928134;28;20142;-73
2022/01/20 08:00:18;;;;;;;11.75;1.75;;;2.90;99.90;;;;;;4923010;28;20090;-73
2022/01/20 08:02:45;;;;;;;10.18;1.58;;;3.00;99.90;;;;;;4924436;28;20142;-73
2022/01/20 08:05:11;;;;;;;10.73;1.30;;;3.00;99.90;;;;;;4930306;28;20039;-73
2022/01/20 08:07:36;;;;;;;13.65;1.83;;;3.10;99.90;;;;;;4926817;28;20058;-73
2022/01/20 08:10:03;;;;;;;12.07;1.67;;;3.00;99.90;;;;;;4927891;28;20055;-74
2022/01/20 08:12:29;;;;;;;15.50;1.90;;;3.00;99.90;;;;;;4922975;28;20600;-74
2022/01/20 08:14:56;;;;;;;13.23;1.40;;;3.10;99.90;;;;;;4929584;28;20062;-73
2022/01/20 08:17:22;;;;;;;13.23;1.33;;;3.00;99.90;;;;;;4926879;28;20055;-73
2022/01/20 08:19:48;;;;;;;11.60;1.33;;;2.90;99.90;;;;;;4930522;28;20578;-73
2022/01/20 08:22:14;;;;;;;6.18;1.23;;;2.90;99.90;;;;;;4923013;28;20109;-72
2022/01/20 08:24:41;;;;;;;10.23;1.80;;;2.90;99.90;;;;;;4930318;28;20055;-73
2022/01/20 08:27:08;;;;;;;14.60;1.85;;;2.90;99.90;;;;;;4931614;28;20066;-73
2022/01/20 08:29:34;;;;;;;11.90;2.13;;;2.90;99.90;;;;;;4924216;28;20050;-74
2022/01/20 08:31:59;;;;;;;13.48;1.42;;;2.90;99.90;;;;;;4924544;28;20050;-74
2022/01/20 08:34:25;;;;;;;8.18;1.33;;;2.90;99.90;;;;;;4932036;28;20063;-74
2022/01/20 08:36:54;;;;;;;7.97;1.67;;;2.80;99.90;;;;;;4932371;28;20093;-74
2022/01/20 08:39:33;;;;;;;17.33;2.00;;;2.80;99.90;;;;;;4929359;28;20494;-74
2022/01/20 08:41:59;;;;;;;13.32;1.95;;;2.80;99.90;;;;;;4922463;28;20063;-74
2022/01/20 08:44:25;;;;;;;13.30;1.45;;;2.90;99.90;;;;;;4929520;28;20494;-74
2022/01/20 08:46:52;;;;;;;8.43;1.65;;;2.90;99.90;;;;;;4924699;28;20137;-74
2022/01/20 08:49:19;;;;;;;10.15;1.63;;;3.10;99.90;;;;;;4929418;28;20541;-74
2022/01/20 08:51:44;;;;;;;10.98;1.33;;;3.00;99.90;;;;;;4920959;28;20129;-74
2022/01/20 08:54:10;;;;;;;10.32;1.85;;;3.00;99.90;;;;;;4928115;28;20130;-74
2022/01/20 08:56:36;;;;;;;9.07;1.70;;;3.10;99.90;;;;;;4930681;28;20070;-74
2022/01/20 08:59:05;;;;;;;16.92;1.80;;;3.10;99.90;;;;;;4925978;28;20078;-74
2022/01/20 09:01:32;;;;;;;12.82;1.55;;;3.20;99.90;;;;;;4923330;28;20051;-75
2022/01/20 09:03:57;;;;;;;10.85;1.55;;;3.30;99.90;;;;;;4929444;28;20047;-75
2022/01/20 09:06:23;;;;;;;10.23;1.45;;;3.30;99.90;;;;;;4927647;28;20051;-75
2022/01/20 09:08:49;;;;;;;8.65;1.00;;;3.30;99.90;;;;;;4931146;28;20666;-74
2022/01/20 09:11:30;;;;;;;3.28;0.75;;;3.20;99.90;;;;;;4927436;28;20047;-74
2022/01/20 09:16:43;;;;;;;9.48;1.00;;;3.00;99.90;;;;;;4934362;28;20086;-74
2022/01/20 09:19:08;;;;;;;9.30;1.27;;;2.90;99.90;;;;;;4950951;28;22438;-73
2022/01/20 09:21:34;;;;;;;5.90;0.82;;;2.90;99.90;;;;;;4926864;28;20109;-74
2022/01/20 09:24:06;;;;;;;12.98;1.10;;;2.90;99.90;;;;;;4936141;28;20058;-73
2022/01/20 09:26:32;;;;;;;12.10;1.30;;;2.90;99.90;;;;;;4936636;28;20818;-74
2022/01/20 09:28:59;;;;;;;4.13;0.98;;;3.00;99.90;;;;;;5009624;28;20059;-75
2022/01/20 09:31:26;;;;;;;8.05;1.00;;;3.00;99.90;;;;;;4930331;28;20161;-75
2022/01/20 09:33:54;;;;;;;5.63;0.82;;;3.10;99.90;;;;;;4933865;28;20784;-75
2022/01/20 09:36:21;;;;;;;6.15;0.73;;;3.10;99.90;;;;;;4931353;28;20067;-75
2022/01/20 09:38:47;;;;;;;9.90;1.00;;;3.10;99.90;;;;;;4933984;28;20047;-75
2022/01/20 09:41:13;;;;;;;8.07;1.13;;;3.10;99.90;;;;;;4929271;28;20082;-75
2022/01/20 09:43:39;;;;;;;8.85;1.13;;;3.00;99.90;;;;;;4932272;28;20044;-75
2022/01/20 09:46:04;;;;;;;10.95;1.40;;;2.90;99.90;;;;;;4932625;29;20499;-75
2022/01/20 09:48:32;;;;;;;8.73;1.23;;;2.90;99.90;;;;;;4932484;28;20051;-75
2022/01/20 09:51:01;;;;;;;9.48;1.63;;;2.90;99.90;;;;;;4930284;28;20051;-75
2022/01/20 09:53:28;;;;;;;10.88;1.77;;;2.90;99.90;;;;;;4927315;28;20109;-75
2022/01/20 09:55:54;;;;;;;6.00;1.02;;;3.00;99.90;;;;;;4931365;28;20058;-76
2022/01/20 09:58:20;;;;;;;8.00;1.30;;;3.00;99.90;;;;;;4948342;28;20142;-77
2022/01/20 10:00:47;;;;;;;12.77;1.42;;;3.10;99.90;;;;;;4930107;28;20079;-76
2022/01/20 10:03:19;;;;;;;9.85;1.20;;;3.10;99.90;;;;;;4922174;28;20057;-76
2022/01/20 10:05:50;;;;;;;10.18;1.67;;;3.20;99.90;;;;;;4930548;28;20043;-76
2022/01/20 10:08:21;;;;;;;12.10;1.88;;;3.40;99.90;;;;;;4932035;28;20486;-76
2022/01/20 10:11:19;;;;;;;11.25;1.02;;;3.40;99.90;;;;;;4929495;28;20043;-75
2022/01/20 10:13:44;;;;;;;7.43;1.35;;;3.40;99.90;;;;;;4964934;28;20059;-77
2022/01/20 10:16:12;;;;;;;9.30;1.55;;;3.50;99.90;;;;;;4932633;28;20040;-77
2022/01/20 10:19:05;;;;;;;9.75;2.13;;;3.60;99.90;;;;;;4929556;28;20044;-76
2022/01/20 10:21:34;;;;;;;10.30;1.63;;;3.70;99.90;;;;;;4927027;28;20059;-78
2022/01/20 10:24:12;;;;;;;13.80;1.80;;;3.70;99.90;;;;;;4929512;28;20059;-76
2022/01/20 10:26:38;;;;;;;10.57;1.70;;;3.90;99.90;;;;;;4933953;28;20553;-76
2022/01/20 10:29:05;;;;;;;9.38;2.08;;;3.90;99.90;;;;;;4930209;28;20048;-78
2022/01/20 10:31:46;;;;;;;6.60;1.15;;;4.00;99.90;;;;;;4923675;28;20241;-72
2022/01/20 10:34:44;;;;;;;12.15;1.17;;;4.00;99.90;;;;;;4935259;28;20051;-77
2022/01/20 10:37:16;;;;;;;10.70;1.30;;;3.90;99.90;;;;;;4935765;28;20123;-76
2022/01/20 10:39:45;;;;;;;13.10;1.70;;;3.90;99.90;;;;;;4928961;28;20066;-75
2022/01/20 10:42:14;;;;;;;10.30;1.80;;;3.90;99.90;;;;;;4926141;28;20134;-75
2022/01/20 10:44:46;;;;;;;13.20;1.48;;;3.90;99.90;;;;;;4925735;28;20055;-75
2022/01/20 10:47:15;;;;;;;10.55;1.48;;;3.80;99.90;;;;;;4931280;28;20058;-75
2022/01/20 10:49:41;;;;;;;10.20;1.25;;;3.90;99.90;;;;;;4932654;28;20115;-75
2022/01/20 10:52:10;;;;;;;9.00;1.70;;;3.90;99.90;;;;;;4923943;28;20504;-75
2022/01/20 10:54:44;;;;;;;6.32;1.20;;;3.90;99.90;;;;;;4929914;28;20073;-73
2022/01/20 10:57:11;;;;;;;13.45;2.65;;;3.90;99.90;;;;;;4934805;28;20098;-75
2022/01/20 10:59:50;;;;;;;12.18;1.60;;;3.90;99.90;;;;;;4928328;28;21721;-75
2022/01/20 11:02:29;;;;;;;11.18;1.85;;;4.00;99.90;;;;;;4924764;28;20042;-76
2022/01/20 11:04:56;;;;;;;10.07;1.33;;;4.10;99.90;;;;;;4931776;28;20051;-76
2022/01/20 11:07:22;;;;;;;8.73;1.55;;;4.30;99.90;;;;;;4931036;28;21009;-76
2022/01/20 11:09:55;;;;;;;8.40;1.13;;;4.30;99.90;;;;;;4929460;28;20052;-76
2022/01/20 11:12:21;;;;;;;10.67;1.77;;;4.40;99.90;;;;;;4928013;28;20078;-75
2022/01/20 11:14:51;;;;;;;9.93;1.73;;;4.50;99.90;;;;;;4931154;28;20138;-76
2022/01/20 11:17:20;;;;;;;6.22;1.30;;;4.40;99.90;;;;;;4931383;28;20043;-76
2022/01/20 11:19:47;;;;;;;11.82;1.52;;;4.50;99.90;;;;;;4935504;28;20131;-75
2022/01/20 11:22:14;;;;;;;14.27;1.70;;;4.60;99.90;;;;;;4925029;28;20507;-74
2022/01/20 11:24:42;;;;;;;12.73;1.30;;;4.60;99.90;;;;;;4928579;28;20479;-74
2022/01/20 11:27:11;;;;;;;12.15;1.55;;;4.50;99.90;;;;;;4937019;28;20040;-73
2022/01/20 11:29:46;;;;;;;11.35;2.28;;;4.50;99.90;;;;;;4930268;28;20395;-77
2022/01/20 11:32:25;;;;;;;12.15;1.70;;;4.50;99.90;;;;;;4926162;28;20051;-76
2022/01/20 11:35:10;;;;;;;17.40;2.92;;;4.40;99.90;;;;;;4931687;28;20050;-76
2022/01/20 11:37:39;;;;;;;15.02;2.22;;;4.40;99.90;;;;;;4932071;28;20035;-72
2022/01/20 11:40:15;;;;;;;13.43;2.67;;;4.30;99.90;;;;;;4933102;28;20055;-77
2022/01/20 11:42:41;;;;;;;16.00;2.58;;;4.40;99.90;;;;;;4925115;28;20074;-77
2022/01/20 11:45:23;;;;;;;14.02;1.88;;;4.40;99.90;;;;;;4932781;28;20052;-74
2022/01/20 11:47:49;;;;;;;10.27;1.95;;;4.40;99.90;;;;;;4928758;28;20086;-72
2022/01/20 11:50:15;;;;;;;17.30;3.10;;;4.50;99.90;;;;;;4930136;28;20461;-73
2022/01/20 11:52:41;;;;;;;12.43;1.73;;;4.50;99.90;;;;;;4926594;28;20051;-74
2022/01/20 11:55:12;;;;;;;12.15;1.33;;;4.50;99.90;;;;;;4929902;28;20743;-72
2022/01/20 11:57:38;;;;;;;9.65;1.70;;;4.30;99.90;;;;;;4932962;28;20138;-73
2022/01/20 12:00:21;;;;;;;13.35;1.40;;;4.10;99.90;;;;;;4934577;28;20070;-74
2022/01/20 12:02:47;;;;;;;12.00;1.40;;;4.00;99.90;;;;;;4926390;28;20047;-74
2022/01/20 12:05:21;;;;;;;9.05;1.40;;;3.80;99.90;;;;;;4933976;28;20048;-74
2022/01/20 12:07:47;;;;;;;10.57;1.50;;;3.80;99.90;;;;;;4931421;28;20655;-74
2022/01/20 12:10:21;;;;;;;13.55;1.33;;;3.80;99.90;;;;;;4934184;28;20147;-75
2022/01/20 12:12:47;;;;;;;10.27;1.48;;;4.00;99.90;;;;;;4922008;28;20104;-79
2022/01/20 12:15:16;;;;;;;13.65;1.45;;;4.10;99.90;;;;;;4934096;28;20055;-77
2022/01/20 12:17:55;;;;;;;13.35;1.75;;;4.20;99.90;;;;;;4931767;28;20052;-75
2022/01/20 12:20:23;;;;;;;10.63;1.92;;;4.30;99.90;;;;;;4934026;29;20053;-75
2022/01/20 12:22:50;;;;;;;9.43;1.30;;;4.20;99.90;;;;;;4922934;28;20494;-76
2022/01/20 12:25:26;;;;;;;8.57;1.52;;;4.20;99.90;;;;;;4930635;28;20565;-76
2022/01/20 12:27:52;;;;;;;9.82;1.13;;;4.20;99.90;;;;;;4931145;28;20050;-77
2022/01/20 12:30:23;;;;;;;13.38;2.75;;;4.20;99.90;;;;;;4925607;28;20049;-75
2022/01/20 12:32:56;;;;;;;11.00;1.60;;;4.20;99.90;;;;;;4923195;28;20047;-75
2022/01/20 12:35:21;;;;;;;11.30;1.30;;;4.30;99.90;;;;;;4933243;28;20051;-75
2022/01/20 12:37:47;;;;;;;8.20;1.25;;;4.30;99.90;;;;;;4927256;28;20406;-75
2022/01/20 12:40:22;;;;;;;9.93;1.33;;;4.40;99.90;;;;;;4928574;28;20059;-75
2022/01/20 12:42:49;;;;;;;15.68;2.15;;;4.50;99.90;;;;;;4924289;28;20178;-76
2022/01/20 12:48:14;;;;;;;13.13;1.70;;;4.40;99.90;;;;;;4926297;28;20062;-76
2022/01/20 12:51:00;;;;;;;9.98;1.90;;;4.40;99.90;;;;;;4943503;28;20059;-76
2022/01/20 12:53:35;;;;;;;11.00;1.63;;;4.40;99.90;;;;;;4924825;28;20050;-75
2022/01/20 12:56:02;;;;;;;8.77;1.38;;;4.40;99.90;;;;;;4928223;28;20462;-75
2022/01/20 12:58:27;;;;;;;10.30;1.90;;;4.40;99.90;;;;;;4927071;28;20803;-75
2022/01/20 13:01:01;;;;;;;17.88;2.88;;;4.40;99.90;;;;;;4929504;28;20059;-76
2022/01/20 13:03:41;;;;;;;11.32;1.70;;;4.60;99.90;;;;;;4922783;28;20109;-76
2022/01/20 13:06:19;;;;;;;11.70;2.17;;;4.60;99.90;;;;;;4932198;28;20718;-76
2022/01/20 13:09:05;;;;;;;13.55;1.80;;;4.60;99.90;;;;;;4929694;28;20047;-76
2022/01/20 13:11:35;;;;;;;12.80;1.48;;;4.70;99.90;;;;;;4925220;28;20097;-75
2022/01/20 13:14:01;;;;;;;9.98;1.83;;;4.70;99.90;;;;;;4927151;28;20142;-72
2022/01/20 13:16:27;;;;;;;11.43;2.00;;;4.70;99.90;;;;;;4933075;28;20052;-72
2022/01/20 13:18:57;;;;;;;16.58;2.15;;;4.80;99.90;;;;;;4927367;28;20047;-73
2022/01/20 13:21:55;;;;;;;8.68;2.00;;;4.80;99.90;;;;;;4929119;28;20133;-73
2022/01/20 13:24:29;;;;;;;12.90;1.65;;;4.80;99.90;;;;;;4972559;28;20070;-71
2022/01/20 13:26:56;;;;;;;7.88;1.30;;;4.60;99.90;;;;;;4929697;28;20384;-72
2022/01/20 13:29:24;;;;;;;14.57;1.80;;;4.50;99.90;;;;;;4925241;28;20527;-71
2022/01/20 13:31:59;;;;;;;7.47;1.30;;;4.40;99.90;;;;;;4924858;28;20492;-71
2022/01/20 13:34:25;;;;;;;9.52;1.17;;;4.30;99.90;;;;;;4929707;28;20051;-71
2022/01/20 13:36:54;;;;;;;7.13;1.00;;;4.20;99.90;;;;;;4927881;28;20054;-72
2022/01/20 13:39:37;;;;;;;5.03;1.02;;;4.10;99.90;;;;;;4929151;28;20047;-71
2022/01/20 13:42:18;;;;;;;6.47;0.88;;;4.10;99.90;;;;;;4926645;28;20063;-71
2022/01/20 13:45:03;;;;;;;5.30;0.63;;;4.00;99.90;;;;;;4926308;28;20491;-72
2022/01/20 13:47:29;;;;;;;;;;;4.10;99.90;;;;;;4926736;28;20048;-71
2022/01/20 13:49:56;;;;;;;10.93;1.45;;;4.10;99.90;;;;;;4933330;28;20001;-71
2022/01/20 13:52:22;;;;;;;6.88;0.70;;;4.10;99.90;;;;;;4921626;28;20047;-71
2022/01/20 13:54:55;;;;;;;11.50;1.13;;;4.10;99.90;;;;;;4929563;28;20040;-71
2022/01/20 13:57:23;;;;;;;8.93;1.38;;;4.10;99.90;;;;;;4934437;28;20047;-71
2022/01/20 13:59:55;;;;;;;8.75;1.20;;;4.00;99.90;;;;;;4928957;28;20040;-72
2022/01/20 14:02:28;;;;;;;18.65;1.55;;;3.90;99.90;;;;;;4927282;28;20933;-71
2022/01/20 14:04:53;;;;;;;8.70;1.48;;;3.90;99.90;;;;;;4931037;28;20113;-71
2022/01/20 14:07:23;;;;;;;6.85;1.00;;;3.90;99.90;;;;;;4933947;28;20055;-71